Time;durP1;ratioP1;P1;durP2;ratioP2;P2;SDS_P1;SDS_P2;PMS_P1;PMS_P2;Temp;Humidity;BMP_temperature;BMP_pressure;BME280_temperature;BME280_humidity;BME280_pressure;Samples;Min_cycle;Max_cycle;Signal;HPM_P1;HPM_P2
2022/06/25 00:01:16;;;;;;;24.35;15.18;;;19.30;99.90;;;;;;5039787;28;20127;-63
2022/06/25 00:03:43;;;;;;;27.25;17.35;;;19.30;99.90;;;;;;5034054;28;20030;-66
2022/06/25 00:06:09;;;;;;;26.00;15.70;;;19.30;99.90;;;;;;5034399;28;20178;-68
2022/06/25 00:08:36;;;;;;;24.70;16.83;;;19.30;99.90;;;;;;5034162;28;20021;-64
2022/06/25 00:11:03;;;;;;;25.13;17.42;;;19.20;99.90;;;;;;5034271;28;20025;-65
2022/06/25 00:13:29;;;;;;;24.52;14.98;;;19.20;99.90;;;;;;5033953;28;20025;-63
2022/06/25 00:15:55;;;;;;;27.13;16.70;;;19.20;99.90;;;;;;5034651;28;20034;-63
2022/06/25 00:18:21;;;;;;;23.98;15.93;;;19.20;99.90;;;;;;5033666;28;20049;-66
2022/06/25 00:20:47;;;;;;;25.80;17.00;;;19.20;99.90;;;;;;5040337;28;20040;-66
2022/06/25 00:23:13;;;;;;;27.50;16.77;;;19.20;99.90;;;;;;5051141;28;20366;-63
2022/06/25 00:25:39;;;;;;;24.48;15.35;;;19.20;99.90;;;;;;5046287;28;20029;-68
2022/06/25 00:28:05;;;;;;;25.65;15.18;;;19.20;99.90;;;;;;5049950;28;20021;-65
2022/06/25 00:30:31;;;;;;;24.60;15.23;;;19.10;99.90;;;;;;5035330;28;20029;-63
2022/06/25 00:32:57;;;;;;;25.90;16.08;;;19.10;99.90;;;;;;5041860;28;20041;-63
2022/06/25 00:35:23;;;;;;;23.60;14.63;;;19.00;99.90;;;;;;5053526;28;20434;-63
2022/06/25 00:37:48;;;;;;;24.50;14.35;;;19.10;99.90;;;;;;5053095;28;20039;-64
2022/06/25 00:40:14;;;;;;;24.17;14.48;;;19.00;99.90;;;;;;5053806;28;20036;-63
2022/06/25 00:42:44;;;;;;;22.80;14.10;;;19.00;99.90;;;;;;5051632;28;20451;-63
2022/06/25 00:45:11;;;;;;;24.15;14.55;;;19.00;99.90;;;;;;5053429;28;20025;-62
2022/06/25 00:47:36;;;;;;;21.42;14.52;;;19.00;99.90;;;;;;5053555;28;20040;-63
2022/06/25 00:50:02;;;;;;;23.35;15.05;;;18.90;99.90;;;;;;5049928;28;20021;-63
2022/06/25 00:52:33;;;;;;;23.75;14.32;;;18.90;99.90;;;;;;5059054;28;20016;-63
2022/06/25 00:55:06;;;;;;;22.58;14.15;;;18.90;99.90;;;;;;5061245;28;20230;-65
2022/06/25 00:57:33;;;;;;;20.73;13.38;;;18.90;99.90;;;;;;5053310;28;20112;-67
2022/06/25 01:00:04;;;;;;;22.45;14.13;;;18.90;99.90;;;;;;5052243;28;20032;-64
2022/06/25 01:02:30;;;;;;;24.13;14.27;;;18.80;99.90;;;;;;5040689;28;20374;-65
2022/06/25 01:04:56;;;;;;;23.80;13.95;;;18.80;99.90;;;;;;5056422;28;20406;-64
2022/06/25 01:07:22;;;;;;;21.85;13.02;;;18.80;99.90;;;;;;5052290;28;20040;-64
2022/06/25 01:09:49;;;;;;;20.63;13.57;;;18.80;99.90;;;;;;5052341;28;20037;-64
2022/06/25 01:12:15;;;;;;;21.20;12.95;;;18.80;99.90;;;;;;5052268;28;20467;-64
2022/06/25 01:14:41;;;;;;;22.42;13.63;;;18.80;99.90;;;;;;5051994;28;20029;-64
2022/06/25 01:17:08;;;;;;;21.25;12.82;;;18.80;99.90;;;;;;5052723;28;20017;-65
2022/06/25 01:19:35;;;;;;;23.33;12.90;;;18.70;99.90;;;;;;5050178;28;20025;-63
2022/06/25 01:22:08;;;;;;;18.52;11.43;;;18.70;99.90;;;;;;5037745;28;20081;-64
2022/06/25 01:24:34;;;;;;;21.70;12.80;;;18.70;99.90;;;;;;5049325;28;20021;-63
2022/06/25 01:27:00;;;;;;;22.30;13.85;;;18.70;99.90;;;;;;5052304;28;20037;-63
2022/06/25 01:29:26;;;;;;;19.33;11.95;;;18.70;99.90;;;;;;5052350;28;20029;-64
2022/06/25 01:31:52;;;;;;;21.80;11.82;;;18.60;99.90;;;;;;5052074;28;20106;-63
2022/06/25 01:34:18;;;;;;;21.05;12.55;;;18.60;99.90;;;;;;5051846;28;20108;-64
2022/06/25 01:36:43;;;;;;;22.60;12.77;;;18.60;99.90;;;;;;5052332;28;20108;-64
2022/06/25 01:39:09;;;;;;;19.70;11.95;;;18.60;99.90;;;;;;5049716;28;20029;-64
2022/06/25 01:41:36;;;;;;;20.98;12.65;;;18.60;99.90;;;;;;5065677;28;20053;-64
2022/06/25 01:44:02;;;;;;;20.67;12.63;;;18.60;99.90;;;;;;5050715;28;20082;-63
2022/06/25 01:46:28;;;;;;;22.00;12.75;;;18.60;99.90;;;;;;5051352;28;20159;-63
2022/06/25 01:48:53;;;;;;;20.33;12.43;;;18.60;99.90;;;;;;5051058;28;20039;-64
2022/06/25 01:51:20;;;;;;;22.25;12.80;;;18.60;99.90;;;;;;5051702;28;20104;-64
2022/06/25 01:53:45;;;;;;;18.33;11.43;;;18.50;99.90;;;;;;5051865;28;20032;-65
2022/06/25 01:56:11;;;;;;;23.02;13.73;;;18.50;99.90;;;;;;5045529;28;20029;-65
2022/06/25 01:58:37;;;;;;;21.48;11.52;;;18.60;99.90;;;;;;5051662;28;20021;-65
2022/06/25 02:01:04;;;;;;;22.55;12.98;;;18.50;99.90;;;;;;5052570;28;20075;-64
2022/06/25 02:03:30;;;;;;;22.63;12.65;;;18.50;99.90;;;;;;5055990;28;20029;-64
2022/06/25 02:05:58;;;;;;;21.52;13.32;;;18.50;99.90;;;;;;5055384;28;20112;-65
2022/06/25 02:08:35;;;;;;;21.33;13.07;;;18.50;99.90;;;;;;5056277;28;20017;-64
2022/06/25 02:11:03;;;;;;;22.63;13.82;;;18.50;99.90;;;;;;5036436;28;20040;-64
2022/06/25 02:13:29;;;;;;;23.25;14.27;;;18.40;99.90;;;;;;5035381;28;20021;-65
2022/06/25 02:15:55;;;;;;;21.60;13.25;;;18.40;99.90;;;;;;5043805;28;20029;-63
2022/06/25 02:18:22;;;;;;;22.67;13.65;;;18.40;99.90;;;;;;5043656;28;20022;-63
2022/06/25 02:20:48;;;;;;;22.75;13.85;;;18.40;99.90;;;;;;5053653;28;20048;-64
2022/06/25 02:23:15;;;;;;;21.60;14.05;;;18.40;99.90;;;;;;5055730;28;20124;-64
2022/06/25 02:25:42;;;;;;;24.98;14.15;;;18.30;99.90;;;;;;5054717;28;20025;-64
2022/06/25 02:28:08;;;;;;;24.08;15.13;;;18.30;99.90;;;;;;5055536;28;20035;-65
2022/06/25 02:30:34;;;;;;;23.58;14.90;;;18.30;99.90;;;;;;5055926;28;20095;-63
2022/06/25 02:32:59;;;;;;;23.02;14.20;;;18.30;99.90;;;;;;5054808;28;20696;-64
2022/06/25 02:35:25;;;;;;;22.63;14.55;;;18.30;99.90;;;;;;5055314;28;20046;-64
2022/06/25 02:37:51;;;;;;;23.83;14.93;;;18.30;99.90;;;;;;5055218;28;20043;-66
2022/06/25 02:40:16;;;;;;;22.02;13.00;;;18.20;99.90;;;;;;5055112;28;20025;-63
2022/06/25 02:42:42;;;;;;;26.92;13.85;;;18.20;99.90;;;;;;5055021;28;20040;-63
2022/06/25 02:45:09;;;;;;;25.25;15.15;;;18.20;99.90;;;;;;5054396;28;20152;-64
2022/06/25 02:47:35;;;;;;;26.48;14.32;;;18.20;99.90;;;;;;5055099;28;20040;-64
2022/06/25 02:50:00;;;;;;;22.42;14.60;;;18.20;99.90;;;;;;5055209;28;20040;-65
2022/06/25 02:52:26;;;;;;;24.25;13.55;;;18.20;99.90;;;;;;5054390;28;20028;-63
2022/06/25 02:54:53;;;;;;;23.30;12.77;;;18.10;99.90;;;;;;5054428;28;20451;-64
2022/06/25 03:00:07;;;;;;;24.30;13.25;;;18.10;99.90;;;;;;5053674;28;20032;-64
2022/06/25 03:02:33;;;;;;;24.10;14.40;;;18.10;99.90;;;;;;5054323;28;20414;-67
2022/06/25 03:04:59;;;;;;;20.45;12.10;;;18.10;99.90;;;;;;5054698;28;20106;-64
2022/06/25 03:07:25;;;;;;;20.60;12.18;;;18.10;99.90;;;;;;5054320;28;20033;-64
2022/06/25 03:09:50;;;;;;;23.85;13.40;;;18.00;99.90;;;;;;5054520;28;20037;-64
2022/06/25 03:12:16;;;;;;;21.80;12.05;;;18.00;99.90;;;;;;5053796;28;20381;-63
2022/06/25 03:14:42;;;;;;;20.30;11.30;;;18.00;99.90;;;;;;5053162;28;20452;-65
2022/06/25 03:17:07;;;;;;;22.08;12.10;;;18.00;99.90;;;;;;5054101;28;20451;-64
2022/06/25 03:19:33;;;;;;;20.08;10.50;;;18.00;99.90;;;;;;5054325;28;20036;-67
2022/06/25 03:21:58;;;;;;;23.42;12.45;;;18.00;99.90;;;;;;5054590;28;20036;-63
2022/06/25 03:24:24;;;;;;;18.27;10.02;;;18.00;99.90;;;;;;5053971;28;20040;-64
2022/06/25 03:26:50;;;;;;;20.20;11.05;;;18.00;99.90;;;;;;5054139;28;20029;-64
2022/06/25 03:29:15;;;;;;;21.20;11.10;;;18.00;99.90;;;;;;5053456;28;20036;-64
2022/06/25 03:31:41;;;;;;;20.33;9.98;;;18.00;99.90;;;;;;5054223;28;20099;-63
2022/06/25 03:34:07;;;;;;;22.58;10.48;;;18.10;99.90;;;;;;5052768;28;20447;-63
2022/06/25 03:36:33;;;;;;;20.13;10.52;;;18.10;99.90;;;;;;5054592;28;20039;-66
2022/06/25 03:38:59;;;;;;;20.30;8.32;;;18.10;99.90;;;;;;5053928;28;20063;-64
2022/06/25 03:41:37;;;;;;;23.00;9.38;;;18.20;99.90;;;;;;5053201;28;20025;-63
2022/06/25 03:44:10;;;;;;;20.85;8.45;;;18.30;99.90;;;;;;5054024;28;20056;-64
2022/06/25 03:46:38;;;;;;;21.77;9.63;;;18.30;99.90;;;;;;5052148;28;20428;-64
2022/06/25 03:49:06;;;;;;;16.42;8.48;;;18.40;99.90;;;;;;5053503;28;20029;-67
2022/06/25 03:51:32;;;;;;;20.52;8.82;;;18.50;99.90;;;;;;5053804;28;20028;-66
2022/06/25 03:53:58;;;;;;;17.65;7.40;;;18.60;99.90;;;;;;5051499;28;20366;-64
2022/06/25 03:56:24;;;;;;;16.05;7.05;;;18.70;99.90;;;;;;5053600;28;20561;-64
2022/06/25 03:58:51;;;;;;;14.55;7.40;;;18.70;99.90;;;;;;5053337;28;20025;-64
2022/06/25 04:01:16;;;;;;;20.55;7.18;;;18.80;99.90;;;;;;5052812;28;20017;-64
2022/06/25 04:03:42;;;;;;;16.80;6.78;;;18.90;99.90;;;;;;5050749;28;20036;-64
2022/06/25 04:06:09;;;;;;;15.90;6.30;;;18.90;99.90;;;;;;5052958;28;20033;-64
2022/06/25 04:08:35;;;;;;;15.45;6.75;;;19.00;99.90;;;;;;5052905;28;20017;-67
2022/06/25 04:11:01;;;;;;;10.63;5.15;;;19.00;99.90;;;;;;5052732;28;20028;-66
2022/06/25 04:13:27;;;;;;;13.85;6.30;;;19.10;99.90;;;;;;5052762;28;20417;-65
2022/06/25 04:15:53;;;;;;;14.15;6.18;;;19.10;99.90;;;;;;5052135;28;20025;-64
2022/06/25 04:18:19;;;;;;;13.23;5.90;;;19.20;99.90;;;;;;5052670;28;20067;-63
2022/06/25 04:20:45;;;;;;;16.02;5.75;;;19.30;99.90;;;;;;5050642;28;20415;-65
2022/06/25 04:23:10;;;;;;;11.82;5.40;;;19.40;99.90;;;;;;5052324;28;20021;-65
2022/06/25 04:25:36;;;;;;;9.73;5.20;;;19.40;99.90;;;;;;5050937;28;20025;-65
2022/06/25 04:30:46;;;;;;;9.35;3.83;;;19.50;99.90;;;;;;5050817;28;20048;-63
2022/06/25 04:33:12;;;;;;;7.82;3.80;;;19.50;99.90;;;;;;5052280;28;20378;-66
2022/06/25 04:35:37;;;;;;;15.18;4.53;;;19.50;99.90;;;;;;5052390;28;20029;-64
2022/06/25 04:38:03;;;;;;;9.07;3.22;;;19.60;99.90;;;;;;5051854;28;20017;-68
2022/06/25 04:40:29;;;;;;;13.25;5.05;;;19.60;99.90;;;;;;5052381;28;20421;-65
2022/06/25 04:42:55;;;;;;;7.80;3.80;;;19.70;99.90;;;;;;5047533;28;20170;-68
2022/06/25 04:45:21;;;;;;;10.48;3.78;;;19.70;99.90;;;;;;5051873;28;20493;-67
2022/06/25 04:47:46;;;;;;;12.13;5.15;;;19.80;99.90;;;;;;5052273;28;20029;-62
2022/06/25 04:50:12;;;;;;;10.50;3.55;;;19.90;99.90;;;;;;5051699;28;20032;-67
2022/06/25 04:52:38;;;;;;;13.05;4.18;;;20.10;99.90;;;;;;5051645;28;20143;-66
2022/06/25 04:55:03;;;;;;;8.20;3.72;;;20.20;99.90;;;;;;5051634;28;20048;-67
2022/06/25 04:57:29;;;;;;;8.18;3.60;;;20.20;99.90;;;;;;5051963;28;20120;-66
2022/06/25 04:59:54;;;;;;;6.32;3.35;;;20.30;99.90;;;;;;5052550;28;20076;-64
2022/06/25 05:02:20;;;;;;;8.52;3.92;;;20.30;99.90;;;;;;5051774;28;20048;-64
2022/06/25 05:04:45;;;;;;;11.07;3.78;;;20.40;99.90;;;;;;5052264;28;20021;-66
2022/06/25 05:07:11;;;;;;;7.72;3.63;;;20.40;99.90;;;;;;5051669;28;20036;-66
2022/06/25 05:09:37;;;;;;;7.70;3.13;;;20.50;99.90;;;;;;5052048;28;20031;-63
2022/06/25 05:12:03;;;;;;;5.80;2.90;;;20.50;99.90;;;;;;5051950;28;20029;-64
2022/06/25 05:14:28;;;;;;;6.60;3.17;;;20.50;99.90;;;;;;5050761;28;20024;-64
2022/06/25 05:16:54;;;;;;;8.00;3.40;;;20.50;99.90;;;;;;5049110;28;20075;-63
2022/06/25 05:19:20;;;;;;;10.63;3.15;;;20.40;99.90;;;;;;5051731;28;20017;-64
2022/06/25 05:21:46;;;;;;;8.23;2.90;;;20.40;99.90;;;;;;5052333;28;20032;-67
2022/06/25 05:24:12;;;;;;;6.93;2.95;;;20.40;99.90;;;;;;5050740;28;20025;-64
2022/06/25 05:26:37;;;;;;;10.20;4.00;;;20.50;99.90;;;;;;5052573;28;20032;-64
2022/06/25 05:29:03;;;;;;;7.65;2.92;;;20.60;99.90;;;;;;5051757;28;20113;-64
2022/06/25 05:31:28;;;;;;;5.25;2.22;;;20.70;99.90;;;;;;5050915;28;20119;-64
2022/06/25 05:33:54;;;;;;;6.40;3.20;;;20.70;99.90;;;;;;5050219;28;20059;-67
2022/06/25 05:36:20;;;;;;;8.65;3.45;;;20.90;99.90;;;;;;5055335;28;20071;-65
2022/06/25 05:38:45;;;;;;;5.47;2.97;;;21.20;99.90;;;;;;5053892;28;20402;-63
2022/06/25 05:41:11;;;;;;;9.05;3.50;;;21.80;99.90;;;;;;5055821;28;20051;-63
2022/06/25 05:43:40;;;;;;;8.43;2.60;;;22.40;99.90;;;;;;5054785;28;20071;-63
2022/06/25 05:46:07;;;;;;;7.40;2.75;;;22.80;99.90;;;;;;5056106;28;20029;-64
2022/06/25 05:48:33;;;;;;;7.97;2.92;;;22.80;99.90;;;;;;5056580;28;20102;-66
2022/06/25 05:50:59;;;;;;;11.13;4.00;;;22.70;99.90;;;;;;5056139;28;20029;-63
2022/06/25 05:53:25;;;;;;;8.05;3.20;;;22.60;99.90;;;;;;5056578;28;20064;-63
2022/06/25 05:55:51;;;;;;;7.15;3.20;;;22.60;99.90;;;;;;5056387;28;20032;-67
2022/06/25 05:58:17;;;;;;;8.88;2.90;;;22.60;99.90;;;;;;5053477;28;20029;-65
2022/06/25 06:00:43;;;;;;;8.52;2.60;;;22.70;99.90;;;;;;5055653;28;20409;-64
2022/06/25 06:03:09;;;;;;;7.38;2.72;;;22.80;99.90;;;;;;5056850;28;20037;-69
2022/06/25 06:05:35;;;;;;;6.15;2.90;;;22.70;99.90;;;;;;5056218;28;20044;-65
2022/06/25 06:08:01;;;;;;;5.78;2.40;;;22.60;99.90;;;;;;5055591;28;20036;-64
2022/06/25 06:10:26;;;;;;;8.80;2.40;;;22.70;99.90;;;;;;5056200;28;20016;-66
2022/06/25 06:12:52;;;;;;;6.55;2.40;;;22.70;99.90;;;;;;5056208;28;20560;-64
2022/06/25 06:15:17;;;;;;;4.50;2.42;;;23.10;99.90;;;;;;5052740;28;20106;-66
2022/06/25 06:17:43;;;;;;;8.63;2.35;;;23.70;99.90;;;;;;5038867;28;20488;-63
2022/06/25 06:20:09;;;;;;;6.45;2.38;;;24.30;99.90;;;;;;5056040;28;20041;-67
2022/06/25 06:22:35;;;;;;;4.22;2.17;;;24.80;99.90;;;;;;5055911;28;20021;-64
2022/06/25 06:25:01;;;;;;;8.43;2.90;;;25.10;99.90;;;;;;5056274;28;20024;-63
2022/06/25 06:27:27;;;;;;;5.55;2.58;;;25.30;99.90;;;;;;5056300;28;20040;-63
2022/06/25 06:29:52;;;;;;;6.50;2.70;;;25.80;99.90;;;;;;5054808;28;20017;-64
2022/06/25 06:32:18;;;;;;;8.40;2.67;;;26.10;99.90;;;;;;5053680;28;20111;-64
2022/06/25 06:34:44;;;;;;;3.13;2.25;;;26.00;99.90;;;;;;5055995;28;20017;-66
2022/06/25 06:37:09;;;;;;;4.47;1.92;;;25.60;99.90;;;;;;5056002;28;20450;-64
2022/06/25 06:39:35;;;;;;;4.07;1.70;;;25.10;99.90;;;;;;5055925;28;20421;-68
2022/06/25 06:42:01;;;;;;;6.18;2.10;;;24.60;99.90;;;;;;5056225;28;20060;-68
2022/06/25 06:44:27;;;;;;;4.95;1.80;;;24.20;99.90;;;;;;5055577;28;20028;-65
2022/06/25 06:46:52;;;;;;;13.10;3.28;;;23.80;99.90;;;;;;5055267;28;20075;-65
2022/06/25 06:49:18;;;;;;;4.47;2.40;;;23.50;99.90;;;;;;5055412;28;20025;-64
2022/06/25 06:51:44;;;;;;;6.55;2.80;;;23.40;99.90;;;;;;5055724;28;20029;-65
2022/06/25 06:54:09;;;;;;;7.38;3.17;;;23.20;99.90;;;;;;5055733;28;20108;-65
2022/06/25 06:56:35;;;;;;;8.45;3.30;;;23.00;99.90;;;;;;5055850;28;20063;-64
2022/06/25 06:59:00;;;;;;;6.22;3.30;;;22.80;99.90;;;;;;5055723;28;20028;-65
2022/06/25 07:01:26;;;;;;;7.70;3.50;;;22.80;99.90;;;;;;5055556;28;20439;-64
2022/06/25 07:03:52;;;;;;;7.40;3.00;;;23.00;99.90;;;;;;5055509;28;20410;-63
2022/06/25 07:06:17;;;;;;;6.65;3.20;;;23.20;99.90;;;;;;5054265;28;20040;-64
2022/06/25 07:08:43;;;;;;;4.50;2.90;;;23.20;99.90;;;;;;5055542;28;20025;-66
2022/06/25 07:13:54;;;;;;;9.20;3.05;;;23.10;99.90;;;;;;5055171;28;20379;-64
2022/06/25 07:16:21;;;;;;;4.78;2.38;;;23.10;99.90;;;;;;5054601;28;20425;-64
2022/06/25 07:18:46;;;;;;;5.55;2.25;;;23.00;99.90;;;;;;5055233;28;20104;-65
2022/06/25 07:21:12;;;;;;;4.90;2.10;;;22.80;99.90;;;;;;5054960;28;20053;-64
2022/06/25 07:23:38;;;;;;;4.40;1.63;;;22.40;99.90;;;;;;5053637;28;20025;-63
2022/06/25 07:26:03;;;;;;;4.32;2.00;;;22.20;99.90;;;;;;5055065;28;20107;-64
2022/06/25 07:28:29;;;;;;;10.02;3.45;;;22.00;99.90;;;;;;5054886;28;20083;-63
2022/06/25 07:30:54;;;;;;;8.30;2.75;;;21.80;99.90;;;;;;5052563;28;20036;-66
2022/06/25 07:33:20;;;;;;;9.95;3.38;;;21.50;99.90;;;;;;5043552;28;20041;-64
2022/06/25 07:35:46;;;;;;;7.68;2.33;;;21.30;99.90;;;;;;5054245;28;20025;-63
2022/06/25 07:38:11;;;;;;;10.05;2.97;;;21.00;99.90;;;;;;5053740;28;20065;-65
2022/06/25 07:40:37;;;;;;;8.30;1.95;;;20.80;99.90;;;;;;5053866;28;20021;-64
2022/06/25 07:43:03;;;;;;;4.38;2.15;;;20.60;99.90;;;;;;5054361;28;20021;-65
2022/06/25 07:45:28;;;;;;;9.18;2.47;;;20.40;99.90;;;;;;5053363;28;20427;-66
2022/06/25 07:47:54;;;;;;;7.70;2.30;;;20.10;99.90;;;;;;5054221;28;20040;-64
2022/06/25 07:53:04;;;;;;;7.78;1.73;;;19.80;99.90;;;;;;5052531;28;20027;-64
2022/06/25 07:55:30;;;;;;;6.57;2.10;;;19.70;99.90;;;;;;5053687;28;20040;-65
2022/06/25 07:57:56;;;;;;;8.77;1.73;;;19.60;99.90;;;;;;5050464;28;20068;-64
2022/06/25 08:00:22;;;;;;;8.18;2.00;;;19.50;99.90;;;;;;5047227;28;21766;-64
2022/06/25 08:02:48;;;;;;;5.05;1.73;;;19.50;99.90;;;;;;5052579;28;20525;-65
2022/06/25 08:05:13;;;;;;;10.27;1.95;;;19.50;99.90;;;;;;5053802;28;20088;-65
2022/06/25 08:07:39;;;;;;;11.00;2.72;;;19.50;99.90;;;;;;5053224;28;20043;-65
2022/06/25 08:10:05;;;;;;;9.15;2.15;;;19.40;99.90;;;;;;5053264;28;20021;-63
2022/06/25 08:12:31;;;;;;;7.63;1.60;;;19.50;99.90;;;;;;5053492;28;20029;-65
2022/06/25 08:14:56;;;;;;;8.98;1.88;;;19.60;99.90;;;;;;5053262;28;20033;-65
2022/06/25 08:17:22;;;;;;;8.95;2.47;;;19.70;99.90;;;;;;5045861;28;20029;-64
2022/06/25 08:19:47;;;;;;;8.95;1.80;;;19.90;99.90;;;;;;5052442;28;20037;-68
2022/06/25 08:22:13;;;;;;;7.57;2.22;;;20.10;99.90;;;;;;5034514;28;20028;-65
2022/06/25 08:24:38;;;;;;;10.82;3.08;;;20.30;99.90;;;;;;5042984;28;20031;-65
2022/06/25 08:27:04;;;;;;;9.27;1.95;;;20.70;99.90;;;;;;5052039;28;20037;-68
2022/06/25 08:29:30;;;;;;;9.23;2.00;;;21.10;99.90;;;;;;5053643;28;20029;-65
2022/06/25 08:31:55;;;;;;;8.07;1.77;;;21.20;99.90;;;;;;5053743;28;20037;-65
2022/06/25 08:34:21;;;;;;;11.70;1.90;;;21.20;99.90;;;;;;5053765;28;20413;-64
2022/06/25 08:36:47;;;;;;;11.18;2.63;;;21.20;99.90;;;;;;5052389;28;20025;-64
2022/06/25 08:39:12;;;;;;;7.53;1.80;;;21.00;99.90;;;;;;5052480;28;20074;-64
2022/06/25 08:41:38;;;;;;;8.10;1.38;;;20.90;99.90;;;;;;5053494;28;20021;-68
2022/06/25 08:44:04;;;;;;;8.20;1.95;;;20.80;99.90;;;;;;5050818;28;20611;-66
2022/06/25 08:46:30;;;;;;;10.80;2.08;;;20.70;99.90;;;;;;5052145;28;20035;-64
2022/06/25 08:48:59;;;;;;;4.82;1.85;;;20.70;99.90;;;;;;5053005;28;20092;-65
2022/06/25 08:51:28;;;;;;;4.40;1.38;;;20.80;99.90;;;;;;5053449;28;20017;-65
2022/06/25 08:53:54;;;;;;;7.00;1.63;;;21.10;99.90;;;;;;5053703;28;20091;-64
2022/06/25 08:56:20;;;;;;;10.52;2.10;;;21.20;99.90;;;;;;5053740;28;20037;-64
2022/06/25 08:58:46;;;;;;;10.93;2.30;;;21.30;99.90;;;;;;5053296;28;20020;-67
2022/06/25 09:01:11;;;;;;;8.07;1.63;;;21.50;99.90;;;;;;5053071;28;20203;-65
2022/06/25 09:03:39;;;;;;;11.85;2.80;;;21.90;99.90;;;;;;5053006;28;20047;-67
2022/06/25 09:06:16;;;;;;;9.40;2.08;;;22.40;99.90;;;;;;5053289;28;20033;-63
2022/06/25 09:08:43;;;;;;;15.02;2.47;;;23.20;99.90;;;;;;5052831;28;20481;-65
2022/06/25 09:11:09;;;;;;;9.60;2.25;;;23.90;99.90;;;;;;5052994;28;20017;-64
2022/06/25 09:13:34;;;;;;;8.65;2.03;;;24.30;99.90;;;;;;5053158;28;20107;-68
2022/06/25 09:16:00;;;;;;;9.02;1.63;;;24.70;99.90;;;;;;5053235;28;20060;-64
2022/06/25 09:18:25;;;;;;;12.63;2.58;;;25.00;99.90;;;;;;5053180;28;20025;-67
2022/06/25 09:20:58;;;;;;;7.60;1.80;;;25.10;99.90;;;;;;5052842;28;20431;-64
2022/06/25 09:23:25;;;;;;;7.20;2.00;;;25.30;99.90;;;;;;5052897;28;20029;-65
2022/06/25 09:26:04;;;;;;;13.45;2.50;;;25.30;99.90;;;;;;5052995;28;20024;-65
2022/06/25 09:28:34;;;;;;;11.45;2.33;;;25.20;99.90;;;;;;5053210;28;20025;-67
2022/06/25 09:31:02;;;;;;;10.65;1.83;;;25.30;99.90;;;;;;5053162;28;20090;-65
2022/06/25 09:33:31;;;;;;;13.90;2.78;;;25.10;99.90;;;;;;5050221;28;20051;-68
2022/06/25 09:35:57;;;;;;;6.60;1.88;;;25.10;99.90;;;;;;5052771;28;20474;-65
2022/06/25 09:38:24;;;;;;;11.07;2.20;;;25.30;99.90;;;;;;5053239;28;20102;-64
2022/06/25 09:40:52;;;;;;;10.35;2.08;;;25.60;99.40;;;;;;5070834;28;20177;-66
2022/06/25 09:43:20;;;;;;;11.00;2.08;;;25.60;98.80;;;;;;5073043;28;20016;-66
2022/06/25 09:45:48;;;;;;;6.45;1.73;;;25.50;98.20;;;;;;5071718;28;20475;-65
2022/06/25 09:48:27;;;;;;;16.48;5.43;;;25.30;97.80;;;;;;5073210;28;20024;-68
2022/06/25 09:51:15;;;;;;;10.52;2.42;;;24.90;97.80;;;;;;5072637;28;20385;-67
2022/06/25 09:53:49;;;;;;;9.15;1.90;;;24.60;98.00;;;;;;5072893;28;20024;-64
2022/06/25 09:56:36;;;;;;;7.65;2.40;;;24.60;98.10;;;;;;5072932;28;20054;-63
2022/06/25 09:59:01;;;;;;;11.30;2.08;;;24.90;97.90;;;;;;5072264;28;20071;-64
2022/06/25 10:01:29;;;;;;;10.52;2.00;;;24.90;98.20;;;;;;5073001;28;20059;-64
2022/06/25 10:03:57;;;;;;;9.68;1.95;;;24.70;98.60;;;;;;5072927;28;20411;-64
2022/06/25 10:06:24;;;;;;;10.82;2.30;;;24.70;98.90;;;;;;5059260;28;20017;-64
2022/06/25 10:08:51;;;;;;;14.15;2.28;;;24.50;99.10;;;;;;5033049;28;20104;-65
2022/06/25 10:11:23;;;;;;;11.35;2.20;;;24.20;98.90;;;;;;5041254;28;20074;-67
2022/06/25 10:13:50;;;;;;;10.95;2.25;;;24.10;99.60;;;;;;5051682;28;20470;-69
2022/06/25 10:16:18;;;;;;;12.60;2.03;;;23.90;99.90;;;;;;5068216;28;20031;-64
2022/06/25 10:18:44;;;;;;;9.35;2.03;;;23.70;99.90;;;;;;5055027;28;20017;-64
2022/06/25 10:21:13;;;;;;;11.70;2.20;;;23.50;99.90;;;;;;5072683;28;20025;-68
2022/06/25 10:23:40;;;;;;;6.93;1.55;;;23.40;99.90;;;;;;5059286;28;20036;-64
2022/06/25 10:26:07;;;;;;;10.70;1.70;;;23.30;99.90;;;;;;5055681;28;20489;-68
2022/06/25 10:28:36;;;;;;;8.18;1.63;;;23.10;99.90;;;;;;5067185;28;20016;-65
2022/06/25 10:31:20;;;;;;;7.13;1.60;;;23.00;99.90;;;;;;5056852;28;20067;-64
2022/06/25 10:34:03;;;;;;;5.78;1.42;;;23.00;99.90;;;;;;5055680;28;20040;-65
2022/06/25 10:36:47;;;;;;;5.43;1.05;;;23.00;99.60;;;;;;5053790;28;20350;-64
2022/06/25 10:39:22;;;;;;;10.05;1.92;;;23.00;98.90;;;;;;5050840;28;20017;-64
2022/06/25 10:45:07;;;;;;;10.25;1.60;;;22.80;98.80;;;;;;5041853;28;20087;-68
2022/06/25 10:47:46;;;;;;;6.60;1.35;;;22.50;99.50;;;;;;5035895;28;20072;-67
2022/06/25 10:50:21;;;;;;;9.80;1.70;;;22.50;99.90;;;;;;5036019;28;20025;-65
2022/06/25 10:53:01;;;;;;;3.90;1.15;;;22.40;99.90;;;;;;5035759;28;20079;-66
2022/06/25 10:55:46;;;;;;;6.53;1.20;;;22.30;99.90;;;;;;5035690;28;20049;-64
2022/06/25 10:58:16;;;;;;;6.15;1.30;;;22.40;99.90;;;;;;5035538;28;20475;-64
2022/06/25 11:00:58;;;;;;;6.32;1.45;;;22.30;99.90;;;;;;5035564;28;20032;-66
2022/06/25 11:03:30;;;;;;;6.90;1.50;;;22.40;99.90;;;;;;5036044;28;20071;-64
2022/06/25 11:06:17;;;;;;;8.18;1.45;;;22.50;99.90;;;;;;5039163;28;20032;-64
2022/06/25 11:08:43;;;;;;;10.18;1.42;;;22.50;99.90;;;;;;5046884;28;20389;-64
2022/06/25 11:11:10;;;;;;;7.82;1.55;;;22.70;99.90;;;;;;5062887;28;20017;-66
2022/06/25 11:13:39;;;;;;;7.28;1.30;;;23.00;99.90;;;;;;5055701;28;20031;-65
2022/06/25 11:16:15;;;;;;;8.30;1.58;;;23.50;99.90;;;;;;5055332;28;20017;-65
2022/06/25 11:18:54;;;;;;;11.43;1.70;;;24.20;99.30;;;;;;5054019;28;20108;-67
2022/06/25 11:21:27;;;;;;;7.05;1.45;;;25.10;98.50;;;;;;5035685;28;20026;-64
2022/06/25 11:24:03;;;;;;;6.05;1.33;;;26.00;97.40;;;;;;5058813;28;20028;-66
2022/06/25 11:29:20;;;;;;;7.57;1.55;;;29.00;94.20;;;;;;5055335;28;20386;-65
2022/06/25 11:31:45;;;;;;;4.82;1.30;;;30.50;92.40;;;;;;5053265;28;20131;-68
2022/06/25 11:34:21;;;;;;;4.85;1.30;;;31.60;90.70;;;;;;5035213;28;20422;-65
2022/06/25 11:36:58;;;;;;;6.72;1.23;;;32.30;89.30;;;;;;5035328;28;20025;-65
2022/06/25 11:39:24;;;;;;;8.57;1.35;;;33.10;85.50;;;;;;5034602;28;20017;-65
2022/06/25 11:41:51;;;;;;;8.90;1.40;;;33.20;83.30;;;;;;5034661;28;20063;-66
2022/06/25 11:44:18;;;;;;;5.18;1.02;;;33.90;81.80;;;;;;5035056;28;20028;-66
2022/06/25 11:46:45;;;;;;;5.18;1.17;;;34.80;78.90;;;;;;5034728;28;20041;-65
2022/06/25 11:49:12;;;;;;;2.95;0.90;;;35.60;76.90;;;;;;5034833;28;20049;-67
2022/06/25 11:51:51;;;;;;;5.60;1.20;;;36.30;74.40;;;;;;5037431;28;20031;-64
2022/06/25 11:54:21;;;;;;;3.33;1.30;;;36.80;72.20;;;;;;5039467;28;20156;-65
2022/06/25 11:56:55;;;;;;;6.22;1.08;;;37.30;70.40;;;;;;5038490;28;20103;-66
2022/06/25 11:59:32;;;;;;;3.50;1.13;;;37.60;68.70;;;;;;5050764;28;20074;-65
2022/06/25 12:02:03;;;;;;;7.15;1.63;;;38.30;67.10;;;;;;5063736;28;20021;-64
2022/06/25 12:04:29;;;;;;;;;;;38.60;65.20;;;;;;5067358;28;20025;-64
2022/06/25 12:06:55;;;;;;;5.28;1.50;;;38.60;64.20;;;;;;5050122;28;19927;-67
2022/06/25 12:09:21;;;;;;;6.40;1.70;;;38.20;63.70;;;;;;5054219;28;20021;-65
2022/06/25 12:11:55;;;;;;;3.78;0.88;;;37.90;64.30;;;;;;5053297;28;20193;-67
2022/06/25 12:14:26;;;;;;;7.72;1.70;;;38.30;64.00;;;;;;5055538;28;20546;-67
2022/06/25 12:16:53;;;;;;;7.40;1.45;;;38.80;61.30;;;;;;5054080;28;20030;-66
2022/06/25 12:19:19;;;;;;;4.13;1.20;;;37.90;62.00;;;;;;5052752;28;20032;-66
2022/06/25 12:21:45;;;;;;;3.80;1.27;;;37.60;62.80;;;;;;5053964;28;20024;-64
2022/06/25 12:24:13;;;;;;;3.33;1.70;;;37.20;63.20;;;;;;5053746;28;20133;-63
2022/06/25 12:26:41;;;;;;;7.57;1.80;;;36.80;63.90;;;;;;5052636;28;20032;-63
2022/06/25 12:29:15;;;;;;;4.57;1.50;;;36.60;63.60;;;;;;5053872;28;20013;-66
2022/06/25 12:31:50;;;;;;;7.22;1.38;;;36.30;63.60;;;;;;5053271;28;20130;-66
2022/06/25 12:34:15;;;;;;;4.20;1.58;;;35.80;63.80;;;;;;5055968;28;20032;-64
2022/06/25 12:36:41;;;;;;;5.65;1.38;;;35.40;65.00;;;;;;5051640;28;20036;-64
2022/06/25 12:39:43;;;;;;;4.65;1.50;;;35.60;65.90;;;;;;5054025;28;20021;-65
2022/06/25 12:42:12;;;;;;;3.70;1.45;;;35.40;64.00;;;;;;5052094;28;20048;-65
2022/06/25 12:44:39;;;;;;;5.72;2.03;;;34.80;65.30;;;;;;5053230;28;20074;-65
2022/06/25 12:47:13;;;;;;;4.88;1.52;;;34.20;66.60;;;;;;5052863;28;20029;-65
2022/06/25 12:49:55;;;;;;;2.92;1.35;;;33.70;67.90;;;;;;5053258;28;20021;-67
2022/06/25 12:52:34;;;;;;;6.10;1.83;;;33.10;67.70;;;;;;5051725;28;20090;-64
2022/06/25 12:55:00;;;;;;;5.65;1.73;;;32.40;69.00;;;;;;5051452;28;20029;-66
2022/06/25 12:57:28;;;;;;;4.88;1.20;;;32.00;70.20;;;;;;5049658;28;20048;-65